createdAt,value
2019-03-13T00:01:36.018Z,10.70
2019-03-13T00:04:04.230Z,10.60
2019-03-13T00:06:32.021Z,10.60
2019-03-13T00:08:59.969Z,10.10
2019-03-13T00:11:27.575Z,10.40
2019-03-13T00:13:55.588Z,10.20
2019-03-13T00:16:23.642Z,10.20
2019-03-13T00:18:52.077Z,10.10
2019-03-13T00:21:19.676Z,9.90
2019-03-13T00:23:47.299Z,10.20
2019-03-13T00:26:14.882Z,10.00
2019-03-13T00:28:42.515Z,9.70
2019-03-13T00:31:10.547Z,9.80
2019-03-13T00:33:38.078Z,9.80
2019-03-13T00:36:05.587Z,9.60
2019-03-13T00:38:33.495Z,9.50
2019-03-13T00:41:01.942Z,9.40
2019-03-13T00:43:29.602Z,9.40
2019-03-13T00:45:57.199Z,9.50
2019-03-13T00:48:25.328Z,9.30
2019-03-13T00:50:53.210Z,9.40
2019-03-13T00:53:21.444Z,9.40
2019-03-13T00:55:49.178Z,9.30
2019-03-13T00:58:18.864Z,9.40
2019-03-13T01:01:04.260Z,9.00
2019-03-13T01:03:57.380Z,8.90
2019-03-13T01:06:31.768Z,9.30
2019-03-13T01:08:59.295Z,8.80
2019-03-13T01:11:27.442Z,8.90
2019-03-13T01:13:55.027Z,8.60
2019-03-13T01:16:23.076Z,8.60
2019-03-13T01:18:50.649Z,8.60
2019-03-13T01:21:18.495Z,8.60
2019-03-13T01:23:46.401Z,8.30
2019-03-13T01:26:14.146Z,8.60
2019-03-13T01:28:41.762Z,8.90
2019-03-13T01:31:20.406Z,8.80
2019-03-13T01:33:48.003Z,8.50
2019-03-13T01:36:15.858Z,8.90
2019-03-13T01:38:43.737Z,8.40
2019-03-13T01:41:11.499Z,8.80
2019-03-13T01:43:39.694Z,8.70
2019-03-13T01:46:07.276Z,8.20
2019-03-13T01:48:35.342Z,8.40
2019-03-13T01:51:02.865Z,8.40
2019-03-13T01:53:31.003Z,8.40
2019-03-13T01:55:58.838Z,8.10
2019-03-13T01:58:26.442Z,8.20
2019-03-13T02:00:54.138Z,8.20
2019-03-13T02:03:22.374Z,8.20
2019-03-13T02:05:50.199Z,8.30
2019-03-13T02:08:18.140Z,8.20
2019-03-13T02:10:46.142Z,8.20
2019-03-13T02:13:14.303Z,8.00
2019-03-13T02:15:42.027Z,8.00
2019-03-13T02:18:09.894Z,8.10
2019-03-13T02:20:37.419Z,7.90
2019-03-13T02:23:05.332Z,7.90
2019-03-13T02:25:33.062Z,8.10
2019-03-13T02:28:01.083Z,8.10
2019-03-13T02:30:30.222Z,8.40
2019-03-13T02:32:57.822Z,8.10
2019-03-13T02:35:25.411Z,8.20
2019-03-13T02:37:53.057Z,8.20
2019-03-13T02:40:20.634Z,8.00
2019-03-13T02:42:48.516Z,8.10
2019-03-13T02:45:16.237Z,8.20
2019-03-13T02:47:44.090Z,7.90
2019-03-13T02:50:11.633Z,7.90
2019-03-13T02:52:39.227Z,8.20
2019-03-13T02:55:07.496Z,7.90
2019-03-13T02:57:35.433Z,8.00
2019-03-13T03:00:05.810Z,8.10
2019-03-13T03:02:38.600Z,8.00
2019-03-13T03:05:06.196Z,8.10
2019-03-13T03:07:33.734Z,8.00
2019-03-13T03:10:01.250Z,7.80
2019-03-13T03:12:28.807Z,8.00
2019-03-13T03:15:01.076Z,7.70
2019-03-13T03:17:28.718Z,7.70
2019-03-13T03:19:56.371Z,7.60
2019-03-13T03:22:24.479Z,7.60
2019-03-13T03:24:52.135Z,7.90
2019-03-13T03:27:19.613Z,7.50
2019-03-13T03:29:47.835Z,7.60
2019-03-13T03:32:15.448Z,7.90
2019-03-13T03:34:43.039Z,7.50
2019-03-13T03:37:10.612Z,7.70
2019-03-13T03:39:38.501Z,7.70
2019-03-13T03:42:06.569Z,7.70
2019-03-13T03:44:34.575Z,7.70
2019-03-13T03:47:02.840Z,7.70
2019-03-13T03:49:30.741Z,7.80
2019-03-13T03:51:58.288Z,7.70
2019-03-13T03:54:26.106Z,7.80
2019-03-13T03:56:53.899Z,7.80
2019-03-13T03:59:21.449Z,7.70
2019-03-13T04:01:49.072Z,7.90
2019-03-13T04:04:16.668Z,7.80
2019-03-13T04:06:44.303Z,7.60
2019-03-13T04:09:12.096Z,7.60
2019-03-13T04:11:41.563Z,7.70
2019-03-13T04:14:09.122Z,7.60
2019-03-13T04:16:38.234Z,7.40
2019-03-13T04:19:06.826Z,7.50
2019-03-13T04:21:36.284Z,7.50
2019-03-13T04:24:04.932Z,7.50
2019-03-13T04:26:32.422Z,7.40
2019-03-13T04:29:00.372Z,7.50
2019-03-13T04:31:28.211Z,7.30
2019-03-13T04:33:55.795Z,7.10
2019-03-13T04:36:23.709Z,7.30
2019-03-13T04:38:51.322Z,7.20
2019-03-13T04:41:19.713Z,7.10
2019-03-13T04:43:47.645Z,6.90
2019-03-13T04:46:17.267Z,6.90
2019-03-13T04:48:47.102Z,6.90
2019-03-13T04:51:16.154Z,6.90
2019-03-13T04:53:44.239Z,6.80
2019-03-13T04:56:11.763Z,6.70
2019-03-13T04:58:39.591Z,6.60
2019-03-13T05:01:07.871Z,6.80
2019-03-13T05:03:38.004Z,6.80
2019-03-13T05:06:18.484Z,6.70
2019-03-13T05:09:00.952Z,6.90
2019-03-13T05:11:28.592Z,6.60
2019-03-13T05:13:56.684Z,6.80
2019-03-13T05:16:24.535Z,6.90
2019-03-13T05:18:52.722Z,6.90
2019-03-13T05:21:20.993Z,7.10
2019-03-13T05:23:49.202Z,7.10
2019-03-13T05:26:17.126Z,7.30
2019-03-13T05:28:44.586Z,7.30
2019-03-13T05:31:12.490Z,7.30
2019-03-13T05:33:41.072Z,6.90
2019-03-13T05:36:08.972Z,7.40
2019-03-13T05:38:36.749Z,7.60
2019-03-13T05:41:06.894Z,7.40
2019-03-13T05:43:37.608Z,7.30
2019-03-13T05:46:05.219Z,7.50
2019-03-13T05:48:33.110Z,7.40
2019-03-13T05:51:01.387Z,7.50
2019-03-13T05:53:29.314Z,7.40
2019-03-13T05:55:57.242Z,7.30
2019-03-13T05:58:25.160Z,7.40
2019-03-13T06:00:53.018Z,7.40
2019-03-13T06:03:38.638Z,7.30
2019-03-13T06:06:07.148Z,7.40
2019-03-13T06:08:35.284Z,7.30
2019-03-13T06:11:02.894Z,7.40
2019-03-13T06:13:32.992Z,7.40
2019-03-13T06:16:02.089Z,7.20
2019-03-13T06:18:33.280Z,7.10
2019-03-13T06:21:01.194Z,7.20
2019-03-13T06:23:38.937Z,7.20
2019-03-13T06:26:14.972Z,6.50
2019-03-13T06:32:09.448Z,7.30
2019-03-13T06:35:03.033Z,7.10
2019-03-13T06:37:34.175Z,7.20
2019-03-13T06:40:02.617Z,7.00
2019-03-13T06:42:30.837Z,7.40
2019-03-13T06:44:59.945Z,7.70
2019-03-13T06:47:28.189Z,7.60
2019-03-13T06:49:55.784Z,7.70
2019-03-13T06:52:23.304Z,7.70
2019-03-13T06:54:51.181Z,7.70
2019-03-13T06:57:18.767Z,7.60
2019-03-13T07:00:04.661Z,8.00
2019-03-13T07:02:42.234Z,7.80
2019-03-13T07:05:23.503Z,7.60
2019-03-13T07:08:19.635Z,7.80
2019-03-13T07:10:56.355Z,7.90
2019-03-13T07:13:38.025Z,7.80
2019-03-13T07:16:23.963Z,8.00
2019-03-13T07:19:16.534Z,8.20
2019-03-13T07:22:02.912Z,8.30
2019-03-13T07:24:48.341Z,8.30
2019-03-13T07:27:30.407Z,8.60
2019-03-13T07:30:20.083Z,8.80
2019-03-13T07:33:06.090Z,8.90
2019-03-13T07:35:58.670Z,9.20
2019-03-13T07:38:46.155Z,9.60
2019-03-13T07:41:48.660Z,10.20
2019-03-13T07:44:33.782Z,10.50
2019-03-13T07:47:17.199Z,11.40
2019-03-13T07:50:11.928Z,10.90
2019-03-13T07:53:06.217Z,11.10
2019-03-13T07:55:50.579Z,12.40
2019-03-13T07:58:38.016Z,11.50
2019-03-13T08:01:16.994Z,10.60
2019-03-13T08:04:08.664Z,11.80
2019-03-13T08:06:50.488Z,11.50
2019-03-13T08:09:43.297Z,10.10
2019-03-13T08:12:33.518Z,9.60
2019-03-13T08:15:23.878Z,9.40
2019-03-13T08:18:02.262Z,8.90
2019-03-13T08:20:47.815Z,8.80
2019-03-13T08:23:33.513Z,8.60
2019-03-13T08:26:34.370Z,9.20
2019-03-13T08:29:28.619Z,11.20
2019-03-13T08:32:13.271Z,11.60
2019-03-13T08:35:06.339Z,12.60
2019-03-13T08:37:54.015Z,12.40
2019-03-13T08:40:43.709Z,12.10
2019-03-13T08:43:24.659Z,10.70
2019-03-13T08:46:05.416Z,11.50
2019-03-13T08:48:51.275Z,12.10
2019-03-13T08:51:34.225Z,12.40
2019-03-13T08:54:26.455Z,12.00
2019-03-13T08:57:16.611Z,11.10
2019-03-13T09:00:02.784Z,10.30
2019-03-13T09:02:55.753Z,9.60
2019-03-13T09:05:32.923Z,9.90
2019-03-13T09:08:28.898Z,11.50
2019-03-13T09:11:14.910Z,11.90
2019-03-13T09:14:11.015Z,13.40
2019-03-13T09:16:58.372Z,12.80
2019-03-13T09:19:34.468Z,11.70
2019-03-13T09:22:36.795Z,11.40
2019-03-13T09:25:13.375Z,11.90
2019-03-13T09:27:51.071Z,12.60
2019-03-13T09:30:56.190Z,14.00
2019-03-13T09:33:33.806Z,14.80
2019-03-13T09:36:19.319Z,16.20
2019-03-13T09:39:03.206Z,16.50
2019-03-13T09:41:38.446Z,14.40
2019-03-13T09:44:31.868Z,13.00
2019-03-13T09:47:03.901Z,12.00
2019-03-13T09:49:49.973Z,11.10
2019-03-13T09:52:36.038Z,10.50
2019-03-13T09:55:15.999Z,10.40
2019-03-13T09:58:02.074Z,10.60
2019-03-13T10:00:49.359Z,10.80
2019-03-13T10:03:30.590Z,11.20
2019-03-13T10:06:16.366Z,10.70
2019-03-13T10:08:58.691Z,11.00
2019-03-13T10:11:48.600Z,11.20
2019-03-13T10:14:26.707Z,11.00
2019-03-13T10:17:10.774Z,11.10
2019-03-13T10:19:55.667Z,10.70
2019-03-13T10:22:45.902Z,10.40
2019-03-13T10:25:19.898Z,10.40
2019-03-13T10:28:18.795Z,10.30
2019-03-13T10:31:04.603Z,10.80
2019-03-13T10:33:56.214Z,11.00
2019-03-13T10:36:50.717Z,11.00
2019-03-13T10:39:40.924Z,10.50
2019-03-13T10:42:24.181Z,10.70
2019-03-13T10:45:14.696Z,10.60
2019-03-13T10:48:00.505Z,11.00
2019-03-13T10:50:47.588Z,11.40
2019-03-13T10:53:35.075Z,11.40
2019-03-13T10:56:15.109Z,10.90
2019-03-13T10:58:54.117Z,10.40
2019-03-13T11:01:36.831Z,10.70
2019-03-13T11:04:12.130Z,10.50
2019-03-13T11:07:00.201Z,10.50
2019-03-13T11:09:36.362Z,10.20
2019-03-13T11:12:23.778Z,10.30
2019-03-13T11:15:14.886Z,10.70
2019-03-13T11:18:07.863Z,11.00
2019-03-13T11:20:53.487Z,11.00
2019-03-13T11:23:44.027Z,11.00
2019-03-13T11:26:30.336Z,11.00
2019-03-13T11:29:18.143Z,10.90
2019-03-13T11:32:10.092Z,11.10
2019-03-13T11:34:53.742Z,10.30
2019-03-13T11:37:52.843Z,11.00
2019-03-13T11:40:38.114Z,11.40
2019-03-13T11:43:16.195Z,11.20
2019-03-13T11:46:21.517Z,11.70
2019-03-13T11:49:09.447Z,11.30
2019-03-13T11:51:54.960Z,11.60
2019-03-13T11:54:31.999Z,11.70
2019-03-13T11:57:25.006Z,11.50
2019-03-13T12:00:10.282Z,11.10
2019-03-13T12:02:57.701Z,11.20
2019-03-13T12:05:53.758Z,10.50
2019-03-13T12:08:53.143Z,11.00
2019-03-13T12:11:31.091Z,11.50
2019-03-13T12:14:11.680Z,11.20
2019-03-13T12:16:58.778Z,10.80
2019-03-13T12:19:44.654Z,10.50
2019-03-13T12:22:37.554Z,10.90
2019-03-13T12:25:22.451Z,10.90
2019-03-13T12:27:58.122Z,11.00
2019-03-13T12:30:38.726Z,11.20
2019-03-13T12:33:20.169Z,11.40
2019-03-13T12:36:06.183Z,11.30
2019-03-13T12:38:53.215Z,11.40
2019-03-13T12:41:32.326Z,11.80
2019-03-13T12:44:34.366Z,12.10
2019-03-13T12:47:24.375Z,12.40
2019-03-13T12:50:17.687Z,12.40
2019-03-13T12:53:08.694Z,12.10
2019-03-13T12:55:53.267Z,11.50
2019-03-13T12:58:47.405Z,11.30
2019-03-13T13:01:33.303Z,10.90
2019-03-13T13:04:21.000Z,11.40
2019-03-13T13:07:08.575Z,11.40
2019-03-13T13:09:55.654Z,11.40
2019-03-13T13:12:40.947Z,11.00
2019-03-13T13:15:26.460Z,10.50
2019-03-13T13:18:06.076Z,10.80
2019-03-13T13:20:33.705Z,10.50
2019-03-13T13:23:01.767Z,10.00
2019-03-13T13:25:29.686Z,10.40
2019-03-13T13:27:57.577Z,10.60
2019-03-13T13:30:26.283Z,10.20
2019-03-13T13:32:55.248Z,10.20
2019-03-13T13:35:24.490Z,10.80
2019-03-13T13:37:52.295Z,11.00
2019-03-13T13:40:20.142Z,11.00
2019-03-13T13:42:47.799Z,10.90
2019-03-13T13:45:43.938Z,10.40
2019-03-13T13:48:11.831Z,10.70
2019-03-13T13:50:39.507Z,10.80
2019-03-13T13:53:08.372Z,10.90
2019-03-13T13:55:36.241Z,10.60
2019-03-13T13:58:04.174Z,10.60
2019-03-13T14:00:31.758Z,10.80
2019-03-13T14:02:59.294Z,10.60
2019-03-13T14:05:26.889Z,10.10
2019-03-13T14:07:55.151Z,10.40
2019-03-13T14:10:23.371Z,10.10
2019-03-13T14:12:51.255Z,10.30
2019-03-13T14:15:19.704Z,10.00
2019-03-13T14:17:48.811Z,10.30
2019-03-13T14:20:16.319Z,10.10
2019-03-13T14:22:43.981Z,10.10
2019-03-13T14:25:11.986Z,10.10
2019-03-13T14:27:40.083Z,9.50
2019-03-13T14:30:08.469Z,9.90
2019-03-13T14:32:36.039Z,9.50
2019-03-13T14:35:03.665Z,10.10
2019-03-13T14:37:31.526Z,9.80
2019-03-13T14:39:59.793Z,9.60
2019-03-13T14:42:27.462Z,10.20
2019-03-13T14:44:55.403Z,10.10
2019-03-13T14:47:22.888Z,9.70
2019-03-13T14:49:51.663Z,9.70
2019-03-13T14:52:19.541Z,9.70
2019-03-13T14:54:47.378Z,9.60
2019-03-13T14:57:17.664Z,9.50
2019-03-13T14:59:45.201Z,9.70
2019-03-13T15:02:13.083Z,9.60
2019-03-13T15:04:40.937Z,9.50
2019-03-13T15:07:08.504Z,9.40
2019-03-13T15:09:39.085Z,9.50
2019-03-13T15:12:05.824Z,9.90
2019-03-13T15:14:34.174Z,9.70
2019-03-13T15:17:01.754Z,9.80
2019-03-13T15:19:29.547Z,9.70
2019-03-13T15:21:57.427Z,9.70
2019-03-13T15:24:25.516Z,9.50
2019-03-13T15:26:55.290Z,9.40
2019-03-13T15:29:22.915Z,9.60
2019-03-13T15:31:50.722Z,9.60
2019-03-13T15:34:19.011Z,9.40
2019-03-13T15:36:49.860Z,9.50
2019-03-13T15:39:18.259Z,9.40
2019-03-13T15:41:46.511Z,9.90
2019-03-13T15:44:15.035Z,9.70
2019-03-13T15:46:42.648Z,9.40
2019-03-13T15:49:10.258Z,9.50
2019-03-13T15:51:39.082Z,9.50
2019-03-13T15:54:06.810Z,9.40
2019-03-13T15:56:34.742Z,9.50
2019-03-13T15:59:03.066Z,9.50
2019-03-13T16:01:30.792Z,9.50
2019-03-13T16:03:58.443Z,9.80
2019-03-13T16:06:26.647Z,9.70
2019-03-13T16:08:55.214Z,9.50
2019-03-13T16:11:23.255Z,9.40
2019-03-13T16:13:50.990Z,9.70
2019-03-13T16:16:18.740Z,9.70
2019-03-13T16:18:46.908Z,9.60
2019-03-13T16:21:14.834Z,9.60
2019-03-13T16:23:42.887Z,9.50
2019-03-13T16:26:10.465Z,9.60
2019-03-13T16:28:38.478Z,9.50
2019-03-13T16:31:07.767Z,9.50
2019-03-13T16:33:35.503Z,9.60
2019-03-13T16:36:05.441Z,9.60
2019-03-13T16:38:33.327Z,9.50
2019-03-13T16:41:01.078Z,9.60
2019-03-13T16:43:28.903Z,9.60
2019-03-13T16:46:16.167Z,9.70
2019-03-13T16:48:45.783Z,9.50
2019-03-13T16:51:32.259Z,9.70
2019-03-13T16:54:03.949Z,9.50
2019-03-13T16:56:32.164Z,9.70
2019-03-13T16:58:59.808Z,9.40
2019-03-13T17:01:27.683Z,9.70
2019-03-13T17:03:55.377Z,9.40
2019-03-13T17:06:23.280Z,9.40
2019-03-13T17:08:51.532Z,9.40
2019-03-13T17:11:23.689Z,9.20
2019-03-13T17:13:51.318Z,9.70
2019-03-13T17:16:18.782Z,9.40
2019-03-13T17:18:46.959Z,9.40
2019-03-13T17:21:14.559Z,9.40
2019-03-13T17:24:04.718Z,9.70
2019-03-13T17:26:32.479Z,9.60
2019-03-13T17:29:00.474Z,9.10
2019-03-13T17:31:28.782Z,9.10
2019-03-13T17:33:56.394Z,8.50
2019-03-13T17:36:24.226Z,8.70
2019-03-13T17:38:52.876Z,8.80
2019-03-13T17:41:20.572Z,8.90
2019-03-13T17:43:48.030Z,8.90
2019-03-13T17:46:19.470Z,9.00
2019-03-13T17:48:47.230Z,8.90
2019-03-13T17:51:15.147Z,8.50
2019-03-13T17:53:42.706Z,8.60
2019-03-13T17:56:10.323Z,8.50
2019-03-13T17:58:38.385Z,8.70
2019-03-13T18:01:06.821Z,8.60
2019-03-13T18:03:34.796Z,8.60
2019-03-13T18:06:02.751Z,8.70
2019-03-13T18:08:30.658Z,8.90
2019-03-13T18:11:05.973Z,8.60
2019-03-13T18:13:33.800Z,8.80
2019-03-13T18:16:01.870Z,8.80
2019-03-13T18:18:30.038Z,8.70
2019-03-13T18:20:58.121Z,8.70
2019-03-13T18:23:26.214Z,8.60
2019-03-13T18:25:53.868Z,8.70
2019-03-13T18:28:22.380Z,8.80
2019-03-13T18:30:50.619Z,8.30
2019-03-13T18:33:18.217Z,8.40
2019-03-13T18:35:45.798Z,8.30
2019-03-13T18:38:14.613Z,7.90
2019-03-13T18:40:42.343Z,7.90
2019-03-13T18:43:12.164Z,7.70
2019-03-13T18:45:40.362Z,7.80
2019-03-13T18:48:08.588Z,8.00
2019-03-13T18:50:36.299Z,7.80
2019-03-13T18:53:05.299Z,8.00
2019-03-13T18:55:36.545Z,7.60
2019-03-13T18:58:04.479Z,7.90
2019-03-13T19:00:32.665Z,7.70
2019-03-13T19:03:00.770Z,7.40
2019-03-13T19:05:29.400Z,7.50
2019-03-13T19:07:58.218Z,7.60
2019-03-13T19:10:26.354Z,7.60
2019-03-13T19:12:54.308Z,7.50
2019-03-13T19:15:22.074Z,7.40
2019-03-13T19:17:49.723Z,7.50
2019-03-13T19:20:18.675Z,7.20
2019-03-13T19:22:46.310Z,7.20
2019-03-13T19:25:15.216Z,7.10
2019-03-13T19:27:43.258Z,7.30
2019-03-13T19:30:14.342Z,7.10
2019-03-13T19:32:41.961Z,7.10
2019-03-13T19:35:10.968Z,6.70
2019-03-13T19:37:38.876Z,6.80
2019-03-13T19:40:09.119Z,6.60
2019-03-13T19:42:37.062Z,6.90
2019-03-13T19:45:05.056Z,6.70
2019-03-13T19:47:33.155Z,6.90
2019-03-13T19:50:00.961Z,6.70
2019-03-13T19:52:31.579Z,6.80
2019-03-13T19:54:59.489Z,6.70
2019-03-13T19:57:27.188Z,6.70
2019-03-13T19:59:55.352Z,6.60
2019-03-13T20:02:23.069Z,6.70
2019-03-13T20:04:50.979Z,6.70
2019-03-13T20:07:19.324Z,6.70
2019-03-13T20:09:47.102Z,6.90
2019-03-13T20:12:14.736Z,6.70
2019-03-13T20:14:42.662Z,6.50
2019-03-13T20:17:10.616Z,6.60
2019-03-13T20:19:38.201Z,6.60
2019-03-13T20:22:06.387Z,6.50
2019-03-13T20:24:33.964Z,6.80
2019-03-13T20:27:01.511Z,6.70
2019-03-13T20:29:29.091Z,7.10
2019-03-13T20:31:57.358Z,7.00
2019-03-13T20:34:25.554Z,6.90
2019-03-13T20:36:53.187Z,7.00
2019-03-13T20:39:21.318Z,7.30
2019-03-13T20:41:49.162Z,7.10
2019-03-13T20:44:16.985Z,7.00
2019-03-13T20:46:44.648Z,6.90
2019-03-13T20:49:12.170Z,7.30
2019-03-13T20:51:39.774Z,7.10
2019-03-13T20:54:07.522Z,7.00
2019-03-13T20:56:35.386Z,7.10
2019-03-13T20:59:03.079Z,7.30
2019-03-13T21:01:30.914Z,7.00
2019-03-13T21:03:58.814Z,6.70
2019-03-13T21:06:26.943Z,6.70
2019-03-13T21:08:54.844Z,6.90
2019-03-13T21:11:22.873Z,6.80
2019-03-13T21:13:50.472Z,6.90
2019-03-13T21:16:18.454Z,6.70
2019-03-13T21:18:46.294Z,6.70
2019-03-13T21:21:13.787Z,6.50
2019-03-13T21:23:41.330Z,6.50
2019-03-13T21:26:09.105Z,6.70
2019-03-13T21:28:37.117Z,6.70
2019-03-13T21:31:05.353Z,6.60
2019-03-13T21:33:33.432Z,6.70
2019-03-13T21:36:01.271Z,6.80
2019-03-13T21:38:29.205Z,6.90
2019-03-13T21:40:57.318Z,6.90
2019-03-13T21:43:25.839Z,6.90
2019-03-13T21:45:53.659Z,6.70
2019-03-13T21:48:21.347Z,6.80
2019-03-13T21:50:50.586Z,6.80
2019-03-13T21:53:18.508Z,6.60
2019-03-13T21:55:46.031Z,6.80
2019-03-13T21:58:13.911Z,6.90
2019-03-13T22:00:41.618Z,6.70
2019-03-13T22:03:09.310Z,6.80
2019-03-13T22:05:36.798Z,6.90
2019-03-13T22:08:04.396Z,6.80
2019-03-13T22:10:31.919Z,6.60
2019-03-13T22:12:59.554Z,6.60
2019-03-13T22:15:27.043Z,6.70
2019-03-13T22:17:55.330Z,6.60
2019-03-13T22:20:23.244Z,6.70
2019-03-13T22:22:50.879Z,6.50
2019-03-13T22:25:18.776Z,6.60
2019-03-13T22:27:46.559Z,6.40
2019-03-13T22:30:16.712Z,6.50
2019-03-13T22:32:44.789Z,6.30
2019-03-13T22:35:12.440Z,6.30
2019-03-13T22:37:40.352Z,6.40
2019-03-13T22:40:08.430Z,6.60
2019-03-13T22:42:36.050Z,6.80
2019-03-13T22:45:07.196Z,7.00
2019-03-13T22:47:42.457Z,6.80
2019-03-13T22:50:03.108Z,6.90
2019-03-13T22:52:30.928Z,6.90
2019-03-13T22:54:58.392Z,7.00
2019-03-13T22:57:26.344Z,6.80
2019-03-13T22:59:53.854Z,7.00
2019-03-13T23:02:22.206Z,6.90
2019-03-13T23:04:50.128Z,6.90
2019-03-13T23:07:18.152Z,7.20
2019-03-13T23:09:46.263Z,7.10
2019-03-13T23:12:14.697Z,7.20
2019-03-13T23:14:42.294Z,7.10
2019-03-13T23:17:10.047Z,6.60
2019-03-13T23:19:37.543Z,7.20
2019-03-13T23:22:06.247Z,7.40
2019-03-13T23:24:34.410Z,7.40
2019-03-13T23:27:02.155Z,7.40
2019-03-13T23:29:29.641Z,7.40
2019-03-13T23:31:57.445Z,7.10
2019-03-13T23:34:26.000Z,7.30
2019-03-13T23:36:54.788Z,7.00
2019-03-13T23:39:22.741Z,7.00
2019-03-13T23:41:50.909Z,6.80
2019-03-13T23:44:18.778Z,7.00
2019-03-13T23:46:46.767Z,6.90
2019-03-13T23:49:14.459Z,7.00
2019-03-13T23:51:42.627Z,6.90
2019-03-13T23:54:10.535Z,7.20
2019-03-13T23:56:38.442Z,7.20
2019-03-13T23:59:06.076Z,7.10
